Time;durP1;ratioP1;P1;durP2;ratioP2;P2;SDS_P1;SDS_P2;PMS_P1;PMS_P2;Temp;Humidity;BMP_temperature;BMP_pressure;BME280_temperature;BME280_humidity;BME280_pressure;Samples;Min_cycle;Max_cycle;Signal;HPM_P1;HPM_P2
2022/09/14 00:01:39;;;;;;;3.00;0.98;;;17.00;99.90;;;;;;5037980;28;20366;-79
2022/09/14 00:04:14;;;;;;;1.65;0.95;;;17.30;99.90;;;;;;5037381;28;20051;-78
2022/09/14 00:06:40;;;;;;;2.50;1.13;;;;;;;;;;5037148;28;20079;-78
2022/09/14 00:09:07;;;;;;;2.83;1.40;;;16.70;99.90;;;;;;5037649;28;20029;-79
2022/09/14 00:11:34;;;;;;;2.42;1.08;;;16.90;99.90;;;;;;5035823;28;20586;-79
2022/09/14 00:14:01;;;;;;;3.85;1.95;;;16.80;99.90;;;;;;5040844;28;20120;-79
2022/09/14 00:16:32;;;;;;;5.32;1.35;;;16.80;99.90;;;;;;5036061;28;20056;-78
2022/09/14 00:19:04;;;;;;;2.88;1.67;;;16.70;99.90;;;;;;5039671;28;20563;-78
2022/09/14 00:21:30;;;;;;;1.67;0.90;;;;;;;;;;5037474;28;20025;-79
2022/09/14 00:23:56;;;;;;;1.20;0.82;;;;;;;;;;5035466;28;20067;-79
2022/09/14 00:26:22;;;;;;;2.15;1.20;;;;;;;;;;5034924;28;20040;-78
2022/09/14 00:28:50;;;;;;;1.60;0.93;;;16.40;99.90;;;;;;5033047;28;20028;-78
2022/09/14 00:31:18;;;;;;;1.75;0.98;;;17.00;99.90;;;;;;5040697;28;20087;-78
2022/09/14 00:33:46;;;;;;;2.25;1.23;;;;;;;;;;5038899;28;20025;-78
2022/09/14 00:36:14;;;;;;;3.50;1.27;;;16.70;99.90;;;;;;5040893;28;20235;-79
2022/09/14 00:38:41;;;;;;;1.58;1.20;;;;;;;;;;5035814;28;20037;-78
2022/09/14 00:41:10;;;;;;;2.25;1.13;;;16.90;99.90;;;;;;5031898;28;20116;-79
2022/09/14 00:44:06;;;;;;;1.80;1.13;;;16.80;99.90;;;;;;5038794;28;20124;-79
2022/09/14 00:46:36;;;;;;;2.55;1.27;;;16.70;99.90;;;;;;5033358;28;20493;-78
2022/09/14 00:49:09;;;;;;;3.00;1.23;;;16.70;99.90;;;;;;5038073;28;20032;-78
2022/09/14 00:51:38;;;;;;;1.98;1.20;;;16.80;99.90;;;;;;5035378;28;20075;-78
2022/09/14 00:54:05;;;;;;;3.10;1.35;;;;;;;;;;5040081;28;20495;-78
2022/09/14 00:56:31;;;;;;;2.88;1.45;;;16.80;99.90;;;;;;5030384;28;20030;-78
2022/09/14 00:58:58;;;;;;;1.58;1.15;;;11.80;99.90;;;;;;5036698;28;20039;-79
2022/09/14 01:01:25;;;;;;;4.30;1.30;;;15.90;99.90;;;;;;5035312;28;20025;-79
2022/09/14 01:03:50;;;;;;;1.63;1.10;;;16.70;99.90;;;;;;5036540;28;20033;-78
2022/09/14 01:06:23;;;;;;;2.10;1.27;;;;;;;;;;5038910;28;20060;-78
2022/09/14 01:09:10;;;;;;;1.48;1.10;;;16.30;99.90;;;;;;5037848;28;20041;-78
2022/09/14 01:12:01;;;;;;;2.83;1.27;;;16.30;99.90;;;;;;5036078;28;20410;-78
2022/09/14 01:14:33;;;;;;;2.65;1.38;;;17.30;99.90;;;;;;5034932;28;20453;-77
2022/09/14 01:17:08;;;;;;;1.95;1.20;;;16.10;99.90;;;;;;5034519;28;20043;-79
2022/09/14 01:20:12;;;;;;;1.42;0.88;;;16.10;99.90;;;;;;5041599;28;20039;-79
2022/09/14 01:22:44;;;;;;;1.30;0.88;;;16.10;99.90;;;;;;4991027;28;20045;-78
2022/09/14 01:25:31;;;;;;;2.28;1.65;;;16.40;99.90;;;;;;5034791;28;20040;-79
2022/09/14 01:28:02;;;;;;;2.20;1.17;;;15.90;99.90;;;;;;5035525;28;20468;-79
2022/09/14 01:30:32;;;;;;;2.47;1.73;;;16.30;99.90;;;;;;5030060;28;20644;-78
2022/09/14 01:33:05;;;;;;;1.83;1.15;;;;;;;;;;5037924;28;20072;-78
2022/09/14 01:35:42;;;;;;;4.15;1.40;;;16.60;99.90;;;;;;5035265;28;20029;-78
2022/09/14 01:38:29;;;;;;;2.75;1.45;;;;;;;;;;5037572;28;20021;-78
2022/09/14 01:40:55;;;;;;;2.25;1.45;;;;;;;;;;5033005;28;20037;-78
2022/09/14 01:43:41;;;;;;;1.77;1.27;;;16.00;99.90;;;;;;5035960;28;20037;-79
2022/09/14 01:46:24;;;;;;;3.55;1.15;;;16.60;99.90;;;;;;5037731;28;20516;-78
2022/09/14 01:48:56;;;;;;;;;;;15.80;99.90;;;;;;5032456;28;20056;-78
2022/09/14 01:51:28;;;;;;;2.47;1.83;;;16.80;99.90;;;;;;5034417;28;19920;-78
2022/09/14 01:54:00;;;;;;;4.28;1.40;;;16.70;99.90;;;;;;5035815;28;20032;-79
2022/09/14 01:56:37;;;;;;;1.65;0.93;;;17.20;99.90;;;;;;5035168;28;20152;-79
2022/09/14 01:59:25;;;;;;;2.00;1.35;;;16.80;99.90;;;;;;5039235;28;20033;-79
2022/09/14 02:02:23;;;;;;;3.97;1.05;;;16.90;99.90;;;;;;5040140;28;20075;-78
2022/09/14 02:04:48;;;;;;;3.47;1.73;;;;;;;;;;5029792;28;20136;-79
2022/09/14 02:07:15;;;;;;;4.20;1.40;;;16.50;99.90;;;;;;5037490;28;20089;-79
2022/09/14 02:09:42;;;;;;;1.92;1.10;;;;;;;;;;5030432;28;20074;-78
2022/09/14 02:12:08;;;;;;;3.80;1.33;;;;;;;;;;5037355;28;20021;-78
2022/09/14 02:14:34;;;;;;;2.15;0.70;;;;;;;;;;5035309;28;20029;-78
2022/09/14 02:17:00;;;;;;;2.00;0.98;;;;;;;;;;5036425;28;20036;-78
2022/09/14 02:19:32;;;;;;;4.03;1.13;;;16.60;99.90;;;;;;5045594;28;20086;-78
2022/09/14 02:21:58;;;;;;;2.63;1.45;;;;;;;;;;5038274;28;20037;-79
2022/09/14 02:24:24;;;;;;;2.28;1.73;;;;;;;;;;5035895;28;20095;-78
2022/09/14 02:26:50;;;;;;;2.85;1.38;;;16.80;99.90;;;;;;5038232;28;20606;-78
2022/09/14 02:29:17;;;;;;;5.32;1.85;;;;;;;;;;5040594;28;20064;-78
2022/09/14 02:32:13;;;;;;;4.80;1.30;;;16.20;99.90;;;;;;5036454;28;20025;-78
2022/09/14 02:34:39;;;;;;;1.83;1.25;;;;;;;;;;5043201;28;20036;-77
2022/09/14 02:37:23;;;;;;;3.25;1.85;;;16.70;99.90;;;;;;5038630;28;20029;-79
2022/09/14 02:40:09;;;;;;;3.53;1.60;;;16.50;99.90;;;;;;5034873;28;20037;-78
2022/09/14 02:42:58;;;;;;;2.80;1.75;;;15.70;99.90;;;;;;5040236;28;20029;-78
2022/09/14 02:45:37;;;;;;;2.83;1.50;;;17.10;99.90;;;;;;5038092;28;20676;-78
2022/09/14 02:48:23;;;;;;;3.25;2.00;;;16.60;99.90;;;;;;5042878;28;20028;-79
2022/09/14 02:51:26;;;;;;;2.75;1.75;;;16.60;99.90;;;;;;5041166;28;20672;-78
2022/09/14 02:54:15;;;;;;;9.98;2.00;;;16.50;99.90;;;;;;5041985;28;20116;-78
2022/09/14 02:56:43;;;;;;;4.03;2.10;;;;;;;;;;5038490;28;20033;-77
2022/09/14 02:59:09;;;;;;;6.90;1.92;;;;;;;;;;5039093;28;20570;-76
2022/09/14 03:01:35;;;;;;;9.73;2.10;;;16.50;99.90;;;;;;5041695;28;20082;-77
2022/09/14 03:04:00;;;;;;;3.08;1.73;;;15.80;99.90;;;;;;5041162;28;20040;-77
2022/09/14 03:06:26;;;;;;;3.40;1.90;;;;;;;;;;5040028;28;20035;-77
2022/09/14 03:08:52;;;;;;;3.95;1.83;;;;;;;;;;5034409;28;20025;-77
2022/09/14 03:11:18;;;;;;;3.35;1.60;;;;;;;;;;5037176;28;20036;-78
2022/09/14 03:13:44;;;;;;;2.05;1.08;;;;;;;;;;5042271;28;20052;-77
2022/09/14 03:16:12;;;;;;;3.35;1.35;;;16.60;99.90;;;;;;5041066;28;20052;-77
2022/09/14 03:18:38;;;;;;;4.57;1.88;;;;;;;;;;5040933;28;20021;-78
2022/09/14 03:21:10;;;;;;;4.78;1.77;;;16.60;99.90;;;;;;5042813;28;20025;-77
2022/09/14 03:23:37;;;;;;;2.00;1.00;;;;;;;;;;5036018;28;20121;-76
2022/09/14 03:26:10;;;;;;;3.78;1.98;;;16.70;99.90;;;;;;5037346;28;20090;-76
2022/09/14 03:28:36;;;;;;;;;;;17.00;99.90;;;;;;5041287;28;20040;-77
2022/09/14 03:31:03;;;;;;;7.28;2.25;;;15.70;99.90;;;;;;5038936;28;19909;-77
2022/09/14 03:33:29;;;;;;;3.47;1.38;;;;;;;;;;5038349;28;21702;-77
2022/09/14 03:35:56;;;;;;;8.93;2.67;;;;;;;;;;5036289;28;20061;-77
2022/09/14 03:38:23;;;;;;;4.70;3.00;;;;;;;;;;5040805;28;20031;-77
2022/09/14 03:40:49;;;;;;;3.28;1.60;;;;;;;;;;5035594;28;20095;-77
2022/09/14 03:43:14;;;;;;;4.25;1.98;;;;;;;;;;5037601;28;20049;-77
2022/09/14 03:45:41;;;;;;;4.25;1.90;;;;;;;;;;5037027;28;20040;-77
2022/09/14 03:48:07;;;;;;;5.50;2.10;;;;;;;;;;5035793;28;20436;-77
2022/09/14 03:50:33;;;;;;;4.40;1.63;;;;;;;;;;5041027;28;20030;-77
2022/09/14 03:52:59;;;;;;;4.10;2.00;;;;;;;;;;5037974;28;20064;-77
2022/09/14 03:55:25;;;;;;;4.25;1.50;;;;;;;;;;5040614;28;20076;-76
2022/09/14 03:57:56;;;;;;;6.80;2.35;;;17.20;99.90;;;;;;5036776;28;20040;-76
2022/09/14 04:00:23;;;;;;;5.93;2.50;;;;;;;;;;5033456;28;20021;-77
2022/09/14 04:02:49;;;;;;;5.65;2.10;;;;;;;;;;5031860;28;20021;-76
2022/09/14 04:05:15;;;;;;;4.75;2.03;;;;;;;;;;5041620;28;20029;-77
2022/09/14 04:07:41;;;;;;;4.03;1.90;;;;;;;;;;5036175;28;20389;-77
2022/09/14 04:10:07;;;;;;;3.97;2.25;;;16.80;99.90;;;;;;5034554;28;20029;-77
2022/09/14 04:12:37;;;;;;;6.38;1.70;;;16.70;99.90;;;;;;5034714;28;20048;-77
2022/09/14 04:15:07;;;;;;;3.55;1.80;;;16.70;99.90;;;;;;5038160;28;20021;-77
2022/09/14 04:17:33;;;;;;;3.25;2.33;;;16.70;99.90;;;;;;5036629;28;20724;-77
2022/09/14 04:19:59;;;;;;;4.78;2.05;;;16.50;99.90;;;;;;5038708;28;20026;-77
2022/09/14 04:22:25;;;;;;;5.03;1.73;;;;;;;;;;5032321;28;20459;-77
2022/09/14 04:24:50;;;;;;;4.20;1.92;;;16.60;99.90;;;;;;5033918;28;20509;-76
2022/09/14 04:27:16;;;;;;;3.90;2.03;;;;;;;;;;5038368;28;20017;-77
2022/09/14 04:29:42;;;;;;;3.78;1.73;;;;;;;;;;5034133;28;20144;-77
2022/09/14 04:32:08;;;;;;;10.20;2.20;;;;;;;;;;5040475;28;20623;-77
2022/09/14 04:34:35;;;;;;;4.80;2.50;;;;;;;;;;5038876;28;20720;-78
2022/09/14 04:37:00;;;;;;;5.93;2.13;;;16.60;99.90;;;;;;5036802;28;20033;-79
2022/09/14 04:39:26;;;;;;;6.93;2.50;;;;;;;;;;5036246;28;20029;-77
2022/09/14 04:41:52;;;;;;;3.35;2.17;;;16.80;99.90;;;;;;5030739;28;20029;-76
2022/09/14 04:44:18;;;;;;;5.63;1.95;;;;;;;;;;5037260;28;20041;-77
2022/09/14 04:46:44;;;;;;;4.85;2.03;;;;;;;;;;5027748;28;20618;-76
2022/09/14 04:49:10;;;;;;;4.93;2.50;;;;;;;;;;5033896;28;20106;-77
2022/09/14 04:52:01;;;;;;;6.65;2.92;;;16.10;99.90;;;;;;5036503;28;20021;-77
2022/09/14 04:54:27;;;;;;;3.83;2.10;;;;;;;;;;5035051;28;20104;-77
2022/09/14 04:56:53;;;;;;;4.70;1.92;;;16.60;99.90;;;;;;5041338;28;20127;-78
2022/09/14 04:59:19;;;;;;;4.88;2.40;;;;;;;;;;5037300;28;20033;-76
2022/09/14 05:01:46;;;;;;;5.18;2.30;;;16.60;99.90;;;;;;5042614;28;20024;-77
2022/09/14 05:04:12;;;;;;;6.18;2.75;;;;;;;;;;5041163;28;20068;-78
2022/09/14 05:06:39;;;;;;;3.78;2.58;;;16.60;99.90;;;;;;5028750;28;20484;-77
2022/09/14 05:09:11;;;;;;;3.15;2.08;;;15.90;99.90;;;;;;5038460;28;20037;-78
2022/09/14 05:11:37;;;;;;;5.50;2.42;;;;;;;;;;5035027;28;20485;-77
2022/09/14 05:14:04;;;;;;;9.88;3.17;;;16.70;99.90;;;;;;5040771;28;20032;-76
2022/09/14 05:16:37;;;;;;;4.15;1.77;;;17.20;99.90;;;;;;5040544;28;20041;-76
2022/09/14 05:19:03;;;;;;;;;;;16.80;99.90;;;;;;5047024;28;20040;-77
2022/09/14 05:21:32;;;;;;;5.07;1.90;;;15.80;99.90;;;;;;5041894;28;19913;-76
2022/09/14 05:24:00;;;;;;;7.57;3.65;;;16.70;99.90;;;;;;5038494;28;20161;-77
2022/09/14 05:26:27;;;;;;;4.93;1.98;;;16.50;99.90;;;;;;5047685;28;20428;-77
2022/09/14 05:28:54;;;;;;;6.65;2.25;;;;;;;;;;5046992;28;20076;-77
2022/09/14 05:31:22;;;;;;;5.25;2.10;;;;;;;;;;5047466;28;20420;-77
2022/09/14 05:33:48;;;;;;;8.05;4.15;;;;;;;;;;5042980;28;20035;-77
2022/09/14 05:36:14;;;;;;;4.20;2.47;;;;;;;;;;5046513;28;20052;-77
2022/09/14 05:38:40;;;;;;;5.63;3.50;;;;;;;;;;5041816;28;20511;-78
2022/09/14 05:41:09;;;;;;;5.00;2.47;;;16.80;99.90;;;;;;5037018;28;20033;-78
2022/09/14 05:43:34;;;;;;;4.07;2.80;;;;;;;;;;5044219;28;20447;-77
2022/09/14 05:46:09;;;;;;;4.05;2.30;;;16.70;99.90;;;;;;5043457;28;20040;-78
2022/09/14 05:48:37;;;;;;;3.85;2.70;;;16.90;99.90;;;;;;5045133;28;20036;-77
2022/09/14 05:51:06;;;;;;;3.72;2.50;;;16.90;99.90;;;;;;5038500;28;20036;-79
2022/09/14 05:53:32;;;;;;;4.93;3.28;;;16.90;99.90;;;;;;5050799;28;20100;-78
2022/09/14 05:56:03;;;;;;;4.70;2.63;;;17.00;99.90;;;;;;5052455;28;20083;-77
2022/09/14 05:58:29;;;;;;;7.20;3.45;;;;;;;;;;5057833;28;20538;-78
2022/09/14 06:00:55;;;;;;;6.60;3.53;;;17.20;99.90;;;;;;5046900;28;20482;-78
2022/09/14 06:03:21;;;;;;;4.75;2.65;;;;;;;;;;5054200;28;20051;-77
2022/09/14 06:05:47;;;;;;;6.30;2.92;;;;;;;;;;5054859;28;20063;-78
2022/09/14 06:08:13;;;;;;;6.40;3.20;;;;;;;;;;5054098;28;20021;-77
2022/09/14 06:10:39;;;;;;;7.97;3.00;;;;;;;;;;5049377;28;20685;-78
2022/09/14 06:13:06;;;;;;;6.28;4.15;;;;;;;;;;5050949;28;20033;-78
2022/09/14 06:15:33;;;;;;;5.50;3.10;;;17.10;99.90;;;;;;5049341;28;20500;-77
2022/09/14 06:17:59;;;;;;;6.18;3.80;;;;;;;;;;5046962;28;20037;-78
2022/09/14 06:20:25;;;;;;;4.68;2.65;;;17.00;99.90;;;;;;5055471;28;20116;-77
2022/09/14 06:22:51;;;;;;;4.45;2.72;;;;;;;;;;5044980;28;20183;-77
2022/09/14 06:25:16;;;;;;;4.00;2.30;;;17.30;99.90;;;;;;5050775;28;20025;-77
2022/09/14 06:27:42;;;;;;;4.30;2.35;;;;;;;;;;5057774;28;20017;-77
2022/09/14 06:30:08;;;;;;;4.00;2.60;;;;;;;;;;5049558;28;20120;-78
2022/09/14 06:32:34;;;;;;;3.40;2.20;;;;;;;;;;5053308;28;20033;-77
2022/09/14 06:35:01;;;;;;;4.20;2.30;;;;;;;;;;5052383;28;20036;-77
2022/09/14 06:37:28;;;;;;;6.63;2.75;;;;;;;;;;5050405;28;20029;-77
2022/09/14 06:39:54;;;;;;;3.22;1.67;;;;;;;;;;5053500;28;20153;-78
2022/09/14 06:42:20;;;;;;;4.93;2.50;;;17.20;99.90;;;;;;5039836;28;20111;-77
2022/09/14 06:44:46;;;;;;;3.10;1.58;;;17.70;99.90;;;;;;5054919;28;20175;-77
2022/09/14 06:47:12;;;;;;;2.92;1.42;;;;;;;;;;5051018;28;20059;-77
2022/09/14 06:49:38;;;;;;;4.47;1.40;;;17.30;99.90;;;;;;5054169;28;20512;-78
2022/09/14 06:52:03;;;;;;;3.55;1.95;;;17.40;99.90;;;;;;5056948;28;20167;-78
2022/09/14 06:54:29;;;;;;;3.78;1.73;;;;;;;;;;5051523;28;20024;-78
2022/09/14 06:56:55;;;;;;;2.08;1.30;;;;;;;;;;5053073;28;20108;-77
2022/09/14 06:59:21;;;;;;;3.05;1.90;;;;;;;;;;5046129;28;20033;-76
2022/09/14 07:01:48;;;;;;;7.15;1.80;;;;;;;;;;5046230;28;20294;-77
2022/09/14 07:04:15;;;;;;;1.65;1.02;;;17.90;99.90;;;;;;5046853;28;20029;-77
2022/09/14 07:06:45;;;;;;;3.42;1.35;;;17.80;99.90;;;;;;5045561;28;20017;-78
2022/09/14 07:09:11;;;;;;;3.95;1.90;;;17.90;99.90;;;;;;5048210;28;20056;-77
2022/09/14 07:11:37;;;;;;;2.13;1.25;;;;;;;;;;5044811;28;20522;-79
2022/09/14 07:14:04;;;;;;;2.33;1.20;;;18.70;99.90;;;;;;5047154;28;20033;-77
2022/09/14 07:16:32;;;;;;;2.50;1.63;;;17.80;99.90;;;;;;5031647;28;20035;-77
2022/09/14 07:19:00;;;;;;;3.08;1.30;;;18.70;99.90;;;;;;5047756;28;20028;-77
2022/09/14 07:21:26;;;;;;;3.78;2.05;;;;;;;;;;5047702;28;20075;-77
2022/09/14 07:23:52;;;;;;;3.47;2.03;;;;;;;;;;5038171;28;20132;-78
2022/09/14 07:26:22;;;;;;;2.08;1.42;;;17.70;99.90;;;;;;5045057;28;20033;-78
2022/09/14 07:28:52;;;;;;;3.83;1.67;;;17.20;99.90;;;;;;5029492;28;20043;-78
2022/09/14 07:31:28;;;;;;;2.17;1.23;;;18.30;99.90;;;;;;5044192;28;20033;-76
2022/09/14 07:33:55;;;;;;;2.58;1.30;;;17.70;99.90;;;;;;5033966;28;20029;-77
2022/09/14 07:36:22;;;;;;;4.05;1.60;;;17.90;99.90;;;;;;5053129;28;20029;-77
2022/09/14 07:38:48;;;;;;;5.32;1.35;;;;;;;;;;5043491;28;20037;-77
2022/09/14 07:41:14;;;;;;;2.03;1.23;;;18.60;99.90;;;;;;5041662;28;20155;-76
2022/09/14 07:43:39;;;;;;;6.15;3.00;;;17.60;99.90;;;;;;5039118;28;20123;-77
2022/09/14 07:46:06;;;;;;;5.97;3.35;;;19.00;99.90;;;;;;5046406;28;20366;-76
2022/09/14 07:48:33;;;;;;;3.72;2.22;;;17.70;99.90;;;;;;5046454;28;20095;-78
2022/09/14 07:51:09;;;;;;;4.18;3.08;;;18.60;99.90;;;;;;5041890;28;20519;-77
2022/09/14 07:53:41;;;;;;;4.85;2.35;;;18.10;99.90;;;;;;5042990;28;20037;-78
2022/09/14 07:56:07;;;;;;;6.13;2.38;;;18.10;99.90;;;;;;5040670;28;20103;-79
2022/09/14 07:58:33;;;;;;;7.95;3.85;;;;;;;;;;5046748;28;20029;-77
2022/09/14 08:01:01;;;;;;;8.50;4.25;;;19.30;99.90;;;;;;5041212;28;20113;-77
2022/09/14 08:03:27;;;;;;;12.18;4.60;;;18.90;99.90;;;;;;5042277;28;20037;-78
2022/09/14 08:06:05;;;;;;;13.32;5.82;;;18.30;99.90;;;;;;5039493;28;20028;-78
2022/09/14 08:08:32;;;;;;;15.25;7.55;;;18.40;99.90;;;;;;5050991;28;20041;-77
2022/09/14 08:11:09;;;;;;;15.25;5.80;;;16.00;99.90;;;;;;5037477;28;20044;-77
2022/09/14 08:13:36;;;;;;;13.70;5.63;;;19.20;99.90;;;;;;5044528;28;20507;-78
2022/09/14 08:16:03;;;;;;;14.48;5.95;;;;;;;;;;5052803;28;20035;-78
2022/09/14 08:18:30;;;;;;;15.68;6.25;;;19.30;99.90;;;;;;5042495;28;20295;-77
2022/09/14 08:20:56;;;;;;;19.15;7.00;;;;;;;;;;5043081;28;20025;-77
2022/09/14 08:23:22;;;;;;;16.42;6.43;;;19.80;99.90;;;;;;5042403;28;20056;-77
2022/09/14 08:25:48;;;;;;;17.02;6.95;;;;;;;;;;5044873;28;20021;-78
2022/09/14 08:28:14;;;;;;;20.83;6.47;;;;;;;;;;5043353;28;20071;-78
2022/09/14 08:30:40;;;;;;;15.98;6.82;;;;;;;;;;5051061;28;20481;-76
2022/09/14 08:33:06;;;;;;;19.27;7.70;;;;;;;;;;5042585;28;20114;-77
2022/09/14 08:35:32;;;;;;;22.40;7.38;;;;;;;;;;5047696;28;20413;-78
2022/09/14 08:37:58;;;;;;;15.07;6.45;;;;;;;;;;5044577;28;20025;-77
2022/09/14 08:40:24;;;;;;;19.42;8.05;;;19.50;99.90;;;;;;5048436;28;20593;-78
2022/09/14 08:42:54;;;;;;;17.13;7.85;;;20.20;99.90;;;;;;5036421;28;20481;-77
2022/09/14 08:45:21;;;;;;;24.52;8.20;;;;;;;;;;5044351;28;20108;-77
2022/09/14 08:47:46;;;;;;;19.25;7.85;;;19.90;99.90;;;;;;5043264;28;20026;-77
2022/09/14 08:50:18;;;;;;;19.92;7.55;;;20.20;99.90;;;;;;5045989;28;20034;-77
2022/09/14 08:52:51;;;;;;;19.60;7.75;;;20.00;99.90;;;;;;5041184;28;20035;-77
2022/09/14 08:55:44;;;;;;;17.38;8.02;;;19.60;99.90;;;;;;5047944;28;20033;-76
2022/09/14 08:58:09;;;;;;;19.38;7.88;;;;;;;;;;5046576;28;20432;-78
2022/09/14 09:01:20;;;;;;;14.18;7.05;;;20.00;99.90;;;;;;5040877;28;20108;-77
2022/09/14 09:04:03;;;;;;;21.27;7.75;;;20.00;99.90;;;;;;5038056;28;20064;-77
2022/09/14 09:06:37;;;;;;;16.83;6.78;;;19.60;99.90;;;;;;5048826;28;20027;-77
2022/09/14 09:09:03;;;;;;;20.80;7.22;;;;;;;;;;5035422;28;20425;-77
2022/09/14 09:11:41;;;;;;;19.15;7.00;;;20.10;99.90;;;;;;5044017;28;20033;-77
2022/09/14 09:14:28;;;;;;;16.25;8.07;;;19.80;99.90;;;;;;5054465;28;20433;-78
2022/09/14 09:16:56;;;;;;;20.15;7.78;;;20.50;99.90;;;;;;5043766;28;20523;-77
2022/09/14 09:19:33;;;;;;;17.50;8.25;;;20.70;99.90;;;;;;5041840;28;20032;-78
2022/09/14 09:22:02;;;;;;;16.08;6.63;;;20.10;99.90;;;;;;5054982;28;20034;-78
2022/09/14 09:24:40;;;;;;;12.60;6.93;;;20.20;99.90;;;;;;5041321;28;20121;-77
2022/09/14 09:27:11;;;;;;;12.98;6.57;;;20.00;99.90;;;;;;5044993;28;20040;-77
2022/09/14 09:29:37;;;;;;;18.92;6.68;;;;;;;;;;5048380;28;20040;-79
2022/09/14 09:32:06;;;;;;;16.73;7.38;;;20.10;99.90;;;;;;5047808;28;20124;-79
2022/09/14 09:34:34;;;;;;;13.38;6.45;;;20.90;99.90;;;;;;5045950;28;20028;-78
2022/09/14 09:37:00;;;;;;;14.60;7.22;;;21.30;99.90;;;;;;5041870;28;20053;-78
2022/09/14 09:39:26;;;;;;;14.77;7.20;;;;;;;;;;5056740;28;20437;-78
2022/09/14 09:42:06;;;;;;;12.80;7.22;;;21.60;99.90;;;;;;5036326;28;20026;-78
2022/09/14 09:44:58;;;;;;;12.45;6.78;;;22.10;99.90;;;;;;5044893;28;20033;-77
2022/09/14 09:47:32;;;;;;;12.27;6.55;;;21.80;99.90;;;;;;5039502;28;20029;-78
2022/09/14 09:50:15;;;;;;;14.35;7.28;;;22.40;99.90;;;;;;5038512;28;20041;-78
2022/09/14 09:52:51;;;;;;;;;;;21.80;99.90;;;;;;5044828;28;20029;-78
2022/09/14 09:55:24;;;;;;;11.60;5.95;;;22.80;99.90;;;;;;5038710;28;19912;-78
2022/09/14 09:57:49;;;;;;;10.82;5.70;;;22.30;99.90;;;;;;5050969;28;20017;-77
2022/09/14 10:00:24;;;;;;;12.43;6.25;;;22.10;99.90;;;;;;5049012;28;20025;-77
2022/09/14 10:02:50;;;;;;;10.63;5.10;;;22.30;99.90;;;;;;5046408;28;20029;-78
2022/09/14 10:05:16;;;;;;;12.38;5.55;;;22.40;99.90;;;;;;5048266;28;20754;-77
2022/09/14 10:07:51;;;;;;;9.65;4.55;;;22.00;99.90;;;;;;5048092;28;20028;-78
2022/09/14 10:10:19;;;;;;;7.72;3.97;;;22.50;99.90;;;;;;5042685;28;20449;-77
2022/09/14 10:12:47;;;;;;;9.73;4.80;;;22.70;99.90;;;;;;5051480;28;20029;-77
2022/09/14 10:15:15;;;;;;;10.40;4.72;;;;;;;;;;5047501;28;20025;-78
2022/09/14 10:18:10;;;;;;;9.07;4.85;;;22.60;99.90;;;;;;5044353;28;20033;-78
2022/09/14 10:20:38;;;;;;;9.85;5.30;;;22.90;99.90;;;;;;5046020;28;20100;-77
2022/09/14 10:23:19;;;;;;;7.38;3.90;;;23.00;99.90;;;;;;5051548;28;20079;-78
2022/09/14 10:25:46;;;;;;;8.75;5.10;;;24.00;99.90;;;;;;5042354;28;20025;-77
2022/09/14 10:28:27;;;;;;;6.40;3.90;;;23.80;99.90;;;;;;5056865;28;20029;-77
2022/09/14 10:31:19;;;;;;;10.55;4.28;;;23.20;99.90;;;;;;5043051;28;20107;-77
2022/09/14 10:33:46;;;;;;;8.40;4.65;;;24.50;99.90;;;;;;5028244;28;20029;-77
2022/09/14 10:36:33;;;;;;;7.53;4.75;;;24.60;99.90;;;;;;5048007;28;20037;-78
2022/09/14 10:39:41;;;;;;;10.90;4.82;;;24.60;99.90;;;;;;5051597;28;20411;-79
2022/09/14 10:42:48;;;;;;;6.13;3.63;;;23.70;99.90;;;;;;4973999;28;20129;-77
2022/09/14 10:45:29;;;;;;;11.68;5.07;;;24.80;99.90;;;;;;4932432;29;20496;-78
2022/09/14 10:48:19;;;;;;;15.60;4.65;;;24.40;99.90;;;;;;5022364;28;20090;-78
2022/09/14 10:51:38;;;;;;;6.38;4.32;;;23.80;99.90;;;;;;5040554;28;20642;-77
2022/09/14 10:54:35;;;;;;;7.40;3.35;;;24.90;99.90;;;;;;4947281;28;20290;-79
2022/09/14 10:57:41;;;;;;;7.03;3.95;;;24.60;99.90;;;;;;4944444;28;20810;-78
2022/09/14 11:00:14;;;;;;;7.45;4.13;;;24.90;99.90;;;;;;4997988;28;20080;-78
2022/09/14 11:02:40;;;;;;;11.55;4.75;;;;;;;;;;5044241;28;20444;-78
2022/09/14 11:05:14;;;;;;;5.38;3.22;;;24.40;99.90;;;;;;5049525;28;20040;-80
2022/09/14 11:08:10;;;;;;;6.07;3.35;;;23.90;99.90;;;;;;5054238;28;20065;-82
2022/09/14 11:10:55;;;;;;;8.07;3.78;;;23.10;99.90;;;;;;5045838;28;20122;-77
2022/09/14 11:13:33;;;;;;;6.10;3.10;;;;;;;;;;5062065;28;20064;-78
2022/09/14 11:16:24;;;;;;;7.47;3.47;;;24.30;99.90;;;;;;5047249;28;20017;-77
2022/09/14 11:18:58;;;;;;;6.45;2.95;;;23.70;99.90;;;;;;5042497;28;20033;-78
2022/09/14 11:21:47;;;;;;;5.93;3.40;;;24.50;99.90;;;;;;5045528;28;20048;-78
2022/09/14 11:24:32;;;;;;;3.85;2.47;;;24.50;99.90;;;;;;5042542;28;20033;-78
2022/09/14 11:27:23;;;;;;;5.68;3.30;;;24.10;99.90;;;;;;5053646;28;20029;-78
2022/09/14 11:29:54;;;;;;;5.95;3.47;;;24.60;99.90;;;;;;5043338;28;20477;-79
2022/09/14 11:32:36;;;;;;;8.25;3.72;;;24.10;99.90;;;;;;5054170;28;20024;-78
2022/09/14 11:35:15;;;;;;;5.80;1.70;;;24.70;99.90;;;;;;5044629;28;20030;-78
2022/09/14 11:37:47;;;;;;;3.78;1.95;;;24.40;99.90;;;;;;5041691;28;20049;-78
2022/09/14 11:40:24;;;;;;;3.40;1.80;;;24.70;99.90;;;;;;5050427;28;20044;-80
2022/09/14 11:43:11;;;;;;;6.07;3.05;;;25.30;99.90;;;;;;5045885;28;20520;-79
2022/09/14 11:46:04;;;;;;;4.82;2.58;;;24.10;99.90;;;;;;5044788;28;20084;-79
2022/09/14 11:48:36;;;;;;;3.65;2.10;;;25.10;99.90;;;;;;5042689;28;20045;-78
2022/09/14 11:51:16;;;;;;;4.15;2.33;;;24.60;99.90;;;;;;5044592;28;20077;-79
2022/09/14 11:53:43;;;;;;;5.03;2.90;;;24.20;99.90;;;;;;5044538;28;20087;-80
2022/09/14 11:56:25;;;;;;;3.65;2.72;;;24.70;99.90;;;;;;5045524;28;20097;-79
2022/09/14 11:58:53;;;;;;;4.05;2.45;;;25.20;99.90;;;;;;5045448;28;20035;-79
2022/09/14 12:01:30;;;;;;;8.35;2.58;;;24.90;99.90;;;;;;5017116;28;20053;-78
2022/09/14 12:03:58;;;;;;;4.03;2.05;;;;;;;;;;5046083;28;20108;-78
2022/09/14 12:06:30;;;;;;;4.50;2.17;;;;;;;;;;5039574;28;20354;-78
2022/09/14 12:09:22;;;;;;;3.13;2.13;;;25.40;99.90;;;;;;5047505;28;20028;-79
2022/09/14 12:11:58;;;;;;;5.33;1.80;;;25.50;99.90;;;;;;5046450;28;20111;-78
2022/09/14 12:14:29;;;;;;;4.97;1.55;;;;;;;;;;5040778;28;20297;-78
2022/09/14 12:17:15;;;;;;;4.95;2.20;;;26.00;99.90;;;;;;5046646;28;20036;-79
2022/09/14 12:19:43;;;;;;;2.78;1.95;;;25.70;99.90;;;;;;5040776;28;20544;-77
2022/09/14 12:22:29;;;;;;;4.65;2.05;;;25.30;99.90;;;;;;5030752;28;20047;-77
2022/09/14 12:25:16;;;;;;;3.42;1.45;;;25.30;99.90;;;;;;5032801;28;20094;-77
2022/09/14 12:27:44;;;;;;;5.82;2.20;;;25.10;99.90;;;;;;5032410;28;20022;-78
2022/09/14 12:30:40;;;;;;;4.30;1.88;;;25.00;99.90;;;;;;5027042;28;20106;-76
2022/09/14 12:33:33;;;;;;;4.82;1.58;;;25.30;99.90;;;;;;5038483;28;20044;-76
2022/09/14 12:35:59;;;;;;;5.57;1.73;;;;;;;;;;5047501;28;20028;-76
2022/09/14 12:38:37;;;;;;;3.92;2.05;;;24.90;99.90;;;;;;5042872;28;20522;-77
2022/09/14 12:41:14;;;;;;;1.98;1.15;;;25.00;99.90;;;;;;5032811;28;20029;-76
2022/09/14 12:43:49;;;;;;;6.38;1.92;;;24.70;99.90;;;;;;5035359;28;20044;-76
2022/09/14 12:46:20;;;;;;;2.40;1.75;;;24.90;99.90;;;;;;5036618;28;20042;-77
2022/09/14 12:48:46;;;;;;;5.30;2.50;;;;;;;;;;5044569;28;20044;-78
2022/09/14 12:51:28;;;;;;;9.60;4.35;;;24.70;99.90;;;;;;5038502;28;20394;-77
2022/09/14 12:54:08;;;;;;;4.70;2.92;;;25.00;99.90;;;;;;5038134;28;20025;-77
2022/09/14 12:56:58;;;;;;;3.17;1.88;;;24.60;99.90;;;;;;5032443;28;20075;-76
2022/09/14 12:59:44;;;;;;;5.10;1.83;;;24.20;99.90;;;;;;5037937;28;20025;-79
2022/09/14 13:02:35;;;;;;;3.67;1.45;;;24.20;99.90;;;;;;5030873;28;20087;-78
2022/09/14 13:05:01;;;;;;;3.15;1.70;;;23.60;99.90;;;;;;5034818;28;21574;-78
2022/09/14 13:07:31;;;;;;;6.38;1.80;;;22.90;99.90;;;;;;5035500;28;20037;-77
2022/09/14 13:09:58;;;;;;;3.60;2.20;;;22.80;99.90;;;;;;5037701;28;20083;-77
2022/09/14 13:12:32;;;;;;;1.60;0.77;;;23.20;99.90;;;;;;5043491;28;20111;-77
2022/09/14 13:15:05;;;;;;;6.07;0.88;;;22.00;99.90;;;;;;5031031;28;20021;-77
2022/09/14 13:17:31;;;;;;;;;;;21.50;99.90;;;;;;5036641;28;20021;-77
2022/09/14 13:20:04;;;;;;;0.98;0.30;;;21.10;99.90;;;;;;5037353;28;20442;-77
2022/09/14 13:22:31;;;;;;;1.08;0.60;;;21.00;99.90;;;;;;5037878;28;20064;-80
2022/09/14 13:24:59;;;;;;;0.88;0.52;;;20.90;99.90;;;;;;5046996;28;20049;-77
2022/09/14 13:27:28;;;;;;;1.27;0.60;;;20.80;99.90;;;;;;5041647;28;20029;-78
2022/09/14 13:30:03;;;;;;;4.95;1.88;;;;;;;;;;5037749;28;20032;-77
2022/09/14 13:32:29;;;;;;;1.63;0.60;;;20.00;99.90;;;;;;5042896;28;20039;-77
2022/09/14 13:34:56;;;;;;;2.58;1.17;;;;;;;;;;5041359;28;20036;-77
2022/09/14 13:37:22;;;;;;;3.05;0.63;;;20.70;99.90;;;;;;5035052;28;20086;-77
2022/09/14 13:39:54;;;;;;;3.08;0.57;;;20.60;99.90;;;;;;5038681;28;20025;-78
2022/09/14 13:42:21;;;;;;;5.45;1.05;;;20.80;99.90;;;;;;5041740;28;20030;-78
2022/09/14 13:44:48;;;;;;;3.22;0.77;;;;;;;;;;5034747;28;20041;-78
2022/09/14 13:47:20;;;;;;;1.75;0.85;;;20.70;99.90;;;;;;5030101;28;20594;-78
2022/09/14 13:49:48;;;;;;;1.45;0.50;;;21.00;99.90;;;;;;5034542;28;20044;-77